createdAt,value
2022-12-28T00:00:29.807Z,23.52
2022-12-28T00:01:33.917Z,23.51
2022-12-28T00:02:35.652Z,23.49
2022-12-28T00:03:37.486Z,23.50
2022-12-28T00:04:39.313Z,23.48
2022-12-28T00:05:41.211Z,23.46
2022-12-28T00:06:42.897Z,23.40
2022-12-28T00:07:45.061Z,23.45
2022-12-28T00:08:46.991Z,23.44
2022-12-28T00:09:48.814Z,23.43
2022-12-28T00:11:09.073Z,23.41
2022-12-28T00:12:12.284Z,23.40
2022-12-28T00:13:14.253Z,23.40
2022-12-28T00:14:15.920Z,23.40
2022-12-28T00:15:17.473Z,23.38
2022-12-28T00:16:31.864Z,23.38
2022-12-28T00:17:33.613Z,23.36
2022-12-28T00:18:36.687Z,23.36
2022-12-28T00:19:38.356Z,23.37
2022-12-28T00:20:39.935Z,23.33
2022-12-28T00:21:42.635Z,23.35
2022-12-28T00:22:45.011Z,23.34
2022-12-28T00:23:53.053Z,23.33
2022-12-28T00:24:54.844Z,23.32
2022-12-28T00:25:57.044Z,23.31
2022-12-28T00:26:59.101Z,23.31
2022-12-28T00:28:00.657Z,23.30
2022-12-28T00:29:05.777Z,23.29
2022-12-28T00:30:08.459Z,23.28
2022-12-28T00:31:10.197Z,23.24
2022-12-28T00:32:11.731Z,23.26
2022-12-28T00:33:14.683Z,23.27
2022-12-28T00:34:17.421Z,23.25
2022-12-28T00:35:18.925Z,23.21
2022-12-28T00:36:20.592Z,23.22
2022-12-28T00:37:22.724Z,23.22
2022-12-28T00:38:25.693Z,23.21
2022-12-28T00:39:28.114Z,23.21
2022-12-28T00:40:29.703Z,23.17
2022-12-28T00:41:31.564Z,23.19
2022-12-28T00:42:33.291Z,23.19
2022-12-28T00:43:35.551Z,23.17
2022-12-28T00:44:37.196Z,23.18
2022-12-28T00:45:39.421Z,23.17
2022-12-28T00:46:41.556Z,23.16
2022-12-28T00:47:43.434Z,23.16
2022-12-28T00:48:45.119Z,23.14
2022-12-28T00:49:46.637Z,23.14
2022-12-28T00:50:48.320Z,23.14
2022-12-28T00:51:50.319Z,23.13
2022-12-28T00:52:51.908Z,23.12
2022-12-28T00:53:53.855Z,23.11
2022-12-28T00:54:55.540Z,23.09
2022-12-28T00:56:05.334Z,23.10
2022-12-28T00:57:06.937Z,23.09
2022-12-28T00:58:08.955Z,23.08
2022-12-28T00:59:11.655Z,23.08
2022-12-28T01:00:14.518Z,23.05
2022-12-28T01:01:20.539Z,23.07
2022-12-28T01:02:22.648Z,23.03
2022-12-28T01:03:24.212Z,23.04
2022-12-28T01:04:25.863Z,23.05
2022-12-28T01:05:28.130Z,23.04
2022-12-28T01:06:30.040Z,23.02
2022-12-28T01:07:31.812Z,23.02
2022-12-28T01:08:35.627Z,23.02
2022-12-28T01:09:37.385Z,23.00
2022-12-28T01:10:39.656Z,22.99
2022-12-28T01:11:41.162Z,23.00
2022-12-28T01:12:43.284Z,22.99
2022-12-28T01:13:45.521Z,23.00
2022-12-28T01:14:47.234Z,22.98
2022-12-28T01:15:48.803Z,22.97
2022-12-28T01:16:50.460Z,22.98
2022-12-28T01:17:56.625Z,22.93
2022-12-28T01:19:00.525Z,22.95
2022-12-28T01:20:02.301Z,22.95
2022-12-28T01:21:12.055Z,22.94
2022-12-28T01:22:14.471Z,22.93
2022-12-28T01:23:16.289Z,22.94
2022-12-28T01:24:18.385Z,22.92
2022-12-28T01:25:20.302Z,22.88
2022-12-28T01:26:22.909Z,22.90
2022-12-28T01:27:24.734Z,22.90
2022-12-28T01:28:26.252Z,22.90
2022-12-28T01:29:28.177Z,22.88
2022-12-28T01:30:30.818Z,22.89
2022-12-28T01:31:32.572Z,22.84
2022-12-28T01:32:34.336Z,22.88
2022-12-28T01:33:36.079Z,22.87
2022-12-28T01:34:37.676Z,22.85
2022-12-28T01:35:39.376Z,22.86
2022-12-28T01:36:40.945Z,22.85
2022-12-28T01:37:42.758Z,22.63
2022-12-28T01:38:45.692Z,22.85
2022-12-28T01:39:47.475Z,22.83
2022-12-28T01:40:50.172Z,22.83
2022-12-28T01:41:52.278Z,22.82
2022-12-28T01:42:53.870Z,22.82
2022-12-28T01:43:55.471Z,22.82
2022-12-28T01:44:57.043Z,22.80
2022-12-28T01:45:58.690Z,22.79
2022-12-28T01:47:06.984Z,22.80
2022-12-28T01:48:20.129Z,22.79
2022-12-28T01:49:29.660Z,22.79
2022-12-28T01:50:31.209Z,22.75
2022-12-28T01:51:58.632Z,22.77
2022-12-28T01:53:03.925Z,22.75
2022-12-28T01:54:05.619Z,22.75
2022-12-28T01:55:07.505Z,22.74
2022-12-28T01:56:09.357Z,22.75
2022-12-28T01:57:11.827Z,22.73
2022-12-28T01:58:24.853Z,22.72
2022-12-28T01:59:30.566Z,22.73
2022-12-28T02:00:33.349Z,22.73
2022-12-28T02:01:35.322Z,22.72
2022-12-28T02:02:37.755Z,22.72
2022-12-28T02:03:39.673Z,22.69
2022-12-28T02:04:41.654Z,22.68
2022-12-28T02:05:46.426Z,22.70
2022-12-28T02:06:48.385Z,22.69
2022-12-28T02:07:57.517Z,22.68
2022-12-28T02:09:04.711Z,22.68
2022-12-28T02:10:41.173Z,22.65
2022-12-28T02:11:29.463Z,22.66
2022-12-28T02:12:32.391Z,22.65
2022-12-28T02:13:35.002Z,22.65
2022-12-28T02:14:37.413Z,22.65
2022-12-28T02:15:39.078Z,22.65
2022-12-28T02:16:42.969Z,22.64
2022-12-28T02:17:44.783Z,22.63
2022-12-28T02:18:47.509Z,22.63
2022-12-28T02:19:49.390Z,22.62
2022-12-28T02:21:09.711Z,22.62
2022-12-28T02:22:20.599Z,22.61
2022-12-28T02:23:54.473Z,22.60
2022-12-28T02:25:13.095Z,22.59
2022-12-28T02:26:43.436Z,22.55
2022-12-28T02:27:54.759Z,22.58
2022-12-28T02:29:14.307Z,22.57
2022-12-28T02:30:17.106Z,22.55
2022-12-28T02:31:30.870Z,22.56
2022-12-28T02:32:51.429Z,22.54
2022-12-28T02:34:04.730Z,22.53
2022-12-28T02:35:18.704Z,22.54
2022-12-28T02:36:28.112Z,22.50
2022-12-28T02:37:36.470Z,22.51
2022-12-28T02:38:45.584Z,22.52
2022-12-28T02:39:59.964Z,22.51
2022-12-28T02:41:08.107Z,22.51
2022-12-28T02:42:10.477Z,22.51
2022-12-28T02:43:12.767Z,22.27
2022-12-28T02:44:34.780Z,22.49
2022-12-28T02:46:01.729Z,22.49
2022-12-28T02:47:27.551Z,22.42
2022-12-28T02:49:04.779Z,22.45
2022-12-28T02:50:11.003Z,22.46
2022-12-28T02:51:46.695Z,22.46
2022-12-28T02:53:06.981Z,22.45
2022-12-28T02:55:09.292Z,22.45
2022-12-28T02:56:41.607Z,22.44
2022-12-28T02:57:49.148Z,22.43
2022-12-28T02:59:04.243Z,22.42
2022-12-28T03:00:08.892Z,22.42
2022-12-28T03:01:26.574Z,22.42
2022-12-28T03:02:28.320Z,22.42
2022-12-28T03:03:56.423Z,22.41
2022-12-28T03:05:58.228Z,22.40
2022-12-28T03:07:23.044Z,22.38
2022-12-28T03:08:39.362Z,22.38
2022-12-28T03:09:58.767Z,22.36
2022-12-28T03:11:07.572Z,22.38
2022-12-28T03:12:20.966Z,22.36
2022-12-28T03:13:44.262Z,22.37
2022-12-28T03:14:54.083Z,22.33
2022-12-28T03:16:03.509Z,22.35
2022-12-28T03:17:25.977Z,22.34
2022-12-28T03:18:48.889Z,22.34
2022-12-28T03:20:14.692Z,22.34
2022-12-28T03:21:35.993Z,22.33
2022-12-28T03:22:58.834Z,22.33
2022-12-28T03:24:21.217Z,22.31
2022-12-28T03:25:46.419Z,22.31
2022-12-28T03:27:09.887Z,22.31
2022-12-28T03:28:34.684Z,22.30
2022-12-28T03:30:02.551Z,22.30
2022-12-28T03:31:10.239Z,22.28
2022-12-28T03:32:12.214Z,22.28
2022-12-28T03:33:14.385Z,22.29
2022-12-28T03:34:16.524Z,22.28
2022-12-28T03:35:21.098Z,22.28
2022-12-28T03:36:51.541Z,22.25
2022-12-28T03:38:00.194Z,22.26
2022-12-28T03:39:24.874Z,22.26
2022-12-28T03:40:32.389Z,22.25
2022-12-28T03:41:47.432Z,22.26
2022-12-28T03:43:10.213Z,22.25
2022-12-28T03:44:32.964Z,22.24
2022-12-28T03:46:03.090Z,22.21
2022-12-28T03:47:14.898Z,22.22
2022-12-28T03:48:17.909Z,22.22
2022-12-28T03:49:19.918Z,22.22
2022-12-28T03:50:24.486Z,22.23
2022-12-28T03:51:30.226Z,22.22
2022-12-28T03:52:32.869Z,22.23
2022-12-28T03:53:44.331Z,22.23
2022-12-28T03:54:46.256Z,22.15
2022-12-28T03:55:48.044Z,22.21
2022-12-28T03:56:51.562Z,22.21
2022-12-28T03:57:53.344Z,22.20
2022-12-28T03:58:56.147Z,22.20
2022-12-28T03:59:57.810Z,22.20
2022-12-28T04:00:59.593Z,22.21
2022-12-28T04:02:01.379Z,22.20
2022-12-28T04:03:03.099Z,22.20
2022-12-28T04:04:04.974Z,22.19
2022-12-28T04:05:07.239Z,22.18
2022-12-28T04:06:15.979Z,22.19
2022-12-28T04:07:17.663Z,22.18
2022-12-28T04:08:19.344Z,22.18
2022-12-28T04:09:22.380Z,22.18
2022-12-28T04:10:24.178Z,22.17
2022-12-28T04:11:26.602Z,22.17
2022-12-28T04:12:30.472Z,22.17
2022-12-28T04:13:32.311Z,22.13
2022-12-28T04:14:33.933Z,22.16
2022-12-28T04:15:35.617Z,22.15
2022-12-28T04:16:37.361Z,22.15
2022-12-28T04:17:39.287Z,22.18
2022-12-28T04:18:44.761Z,22.16
2022-12-28T04:19:46.284Z,22.16
2022-12-28T04:20:47.992Z,22.16
2022-12-28T04:21:49.832Z,22.07
2022-12-28T04:22:51.604Z,22.17
2022-12-28T04:23:53.490Z,22.16
2022-12-28T04:24:55.017Z,22.16
2022-12-28T04:26:03.060Z,22.15
2022-12-28T04:27:04.624Z,22.14
2022-12-28T04:28:06.155Z,22.14
2022-12-28T04:29:08.351Z,22.11
2022-12-28T04:30:10.399Z,22.14
2022-12-28T04:31:13.987Z,22.13
2022-12-28T04:32:16.064Z,22.13
2022-12-28T04:33:18.003Z,22.14
2022-12-28T04:34:19.635Z,22.12
2022-12-28T04:35:21.374Z,22.12
2022-12-28T04:36:22.920Z,22.12
2022-12-28T04:37:24.645Z,22.12
2022-12-28T04:38:26.683Z,22.12
2022-12-28T04:39:28.328Z,22.06
2022-12-28T04:40:49.954Z,22.13
2022-12-28T04:41:51.604Z,22.12
2022-12-28T04:42:53.840Z,22.10
2022-12-28T04:43:55.978Z,22.11
2022-12-28T04:44:57.447Z,22.10
2022-12-28T04:46:00.592Z,22.07
2022-12-28T04:47:02.279Z,22.11
2022-12-28T04:48:04.728Z,22.07
2022-12-28T04:49:06.481Z,22.10
2022-12-28T04:50:08.396Z,22.10
2022-12-28T04:51:23.478Z,22.09
2022-12-28T04:52:25.040Z,22.09
2022-12-28T04:53:26.743Z,22.08
2022-12-28T04:54:28.330Z,22.08
2022-12-28T04:55:32.301Z,22.08
2022-12-28T04:56:35.448Z,22.07
2022-12-28T04:57:37.257Z,22.07
2022-12-28T04:58:39.152Z,22.05
2022-12-28T04:59:41.268Z,22.06
2022-12-28T05:00:43.005Z,22.06
2022-12-28T05:01:45.013Z,22.04
2022-12-28T05:02:46.917Z,22.05
2022-12-28T05:03:55.494Z,22.05
2022-12-28T05:04:58.099Z,22.05
2022-12-28T05:06:05.336Z,22.04
2022-12-28T05:07:06.947Z,22.03
2022-12-28T05:08:08.560Z,22.01
2022-12-28T05:09:10.460Z,22.01
2022-12-28T05:10:12.056Z,22.02
2022-12-28T05:11:16.993Z,22.02
2022-12-28T05:12:21.279Z,22.01
2022-12-28T05:13:22.876Z,22.02
2022-12-28T05:14:24.419Z,22.00
2022-12-28T05:15:25.959Z,21.95
2022-12-28T05:16:29.252Z,21.99
2022-12-28T05:17:30.875Z,21.98
2022-12-28T05:18:32.609Z,21.98
2022-12-28T05:19:34.749Z,21.97
2022-12-28T05:20:36.328Z,21.97
2022-12-28T05:21:37.959Z,21.95
2022-12-28T05:22:41.180Z,21.95
2022-12-28T05:23:43.260Z,21.93
2022-12-28T05:24:44.894Z,21.90
2022-12-28T05:25:53.258Z,21.95
2022-12-28T05:26:54.909Z,21.91
2022-12-28T05:27:56.988Z,21.94
2022-12-28T05:28:59.111Z,21.87
2022-12-28T05:30:00.901Z,21.92
2022-12-28T05:31:05.722Z,21.93
2022-12-28T05:32:07.490Z,21.90
2022-12-28T05:33:09.212Z,21.92
2022-12-28T05:34:10.790Z,21.91
2022-12-28T05:35:12.334Z,21.89
2022-12-28T05:36:19.601Z,21.91
2022-12-28T05:37:22.303Z,21.90
2022-12-28T05:38:24.072Z,21.90
2022-12-28T05:39:25.664Z,21.90
2022-12-28T05:40:27.591Z,21.89
2022-12-28T05:41:30.270Z,21.89
2022-12-28T05:42:32.887Z,21.88
2022-12-28T05:43:34.959Z,21.88
2022-12-28T05:44:36.909Z,21.88
2022-12-28T05:45:38.554Z,21.86
2022-12-28T05:46:40.427Z,21.85
2022-12-28T05:47:42.674Z,21.87
2022-12-28T05:48:44.319Z,21.85
2022-12-28T05:49:47.206Z,21.85
2022-12-28T05:50:48.839Z,21.85
2022-12-28T05:51:52.044Z,21.85
2022-12-28T05:52:53.862Z,21.85
2022-12-28T05:53:56.717Z,21.85
2022-12-28T05:54:58.235Z,21.83
2022-12-28T05:56:14.433Z,21.83
2022-12-28T05:57:16.292Z,21.83
2022-12-28T05:58:17.840Z,21.82
2022-12-28T05:59:19.824Z,21.83
2022-12-28T06:00:21.822Z,21.81
2022-12-28T06:01:26.821Z,21.79
2022-12-28T06:02:28.609Z,21.80
2022-12-28T06:03:30.331Z,21.80
2022-12-28T06:04:32.043Z,21.80
2022-12-28T06:05:34.684Z,21.79
2022-12-28T06:06:36.809Z,21.74
2022-12-28T06:07:38.614Z,21.77
2022-12-28T06:08:41.576Z,21.78
2022-12-28T06:09:43.346Z,21.77
2022-12-28T06:10:44.857Z,21.78
2022-12-28T06:11:46.460Z,21.78
2022-12-28T06:12:47.950Z,21.77
2022-12-28T06:13:50.718Z,21.78
2022-12-28T06:14:52.473Z,21.77
2022-12-28T06:15:54.007Z,21.76
2022-12-28T06:16:55.561Z,21.76
2022-12-28T06:17:57.167Z,21.75
2022-12-28T06:18:59.467Z,21.75
2022-12-28T06:20:01.029Z,21.75
2022-12-28T06:21:28.663Z,21.75
2022-12-28T06:22:30.269Z,21.73
2022-12-28T06:23:32.329Z,21.73
2022-12-28T06:24:34.129Z,21.74
2022-12-28T06:25:37.500Z,21.71
2022-12-28T06:26:41.091Z,21.66
2022-12-28T06:27:42.753Z,21.73
2022-12-28T06:28:45.424Z,21.73
2022-12-28T06:29:46.998Z,21.71
2022-12-28T06:30:52.484Z,21.72
2022-12-28T06:31:56.478Z,21.72
2022-12-28T06:32:58.319Z,21.72
2022-12-28T06:34:01.229Z,21.71
2022-12-28T06:35:03.213Z,21.71
2022-12-28T06:36:05.468Z,21.70
2022-12-28T06:37:07.364Z,21.68
2022-12-28T06:38:09.714Z,21.67
2022-12-28T06:39:13.662Z,21.69
2022-12-28T06:40:15.919Z,21.68
2022-12-28T06:41:19.483Z,21.68
2022-12-28T06:42:21.280Z,21.67
2022-12-28T06:43:22.853Z,21.67
2022-12-28T06:44:24.546Z,21.67
2022-12-28T06:45:26.726Z,21.66
2022-12-28T06:46:30.803Z,21.61
2022-12-28T06:47:33.812Z,21.66
2022-12-28T06:48:36.354Z,21.64
2022-12-28T06:49:38.117Z,21.66
2022-12-28T06:50:40.327Z,21.65
2022-12-28T06:51:42.453Z,21.65
2022-12-28T06:52:44.501Z,21.61
2022-12-28T06:53:47.451Z,21.62
2022-12-28T06:54:49.427Z,21.64
2022-12-28T06:56:00.510Z,21.62
2022-12-28T06:57:02.180Z,21.62
2022-12-28T06:58:03.778Z,21.61
2022-12-28T06:59:06.487Z,21.62
2022-12-28T07:00:08.909Z,21.59
2022-12-28T07:01:22.012Z,21.62
2022-12-28T07:02:24.021Z,21.60
2022-12-28T07:03:25.968Z,21.61
2022-12-28T07:04:28.085Z,21.59
2022-12-28T07:05:31.933Z,21.60
2022-12-28T07:06:39.068Z,21.60
2022-12-28T07:07:40.685Z,21.59
2022-12-28T07:08:43.029Z,21.60
2022-12-28T07:09:44.658Z,21.59
2022-12-28T07:10:46.748Z,21.58
2022-12-28T07:11:50.657Z,21.58
2022-12-28T07:12:52.198Z,21.57
2022-12-28T07:13:53.955Z,21.58
2022-12-28T07:14:55.587Z,21.57
2022-12-28T07:15:57.538Z,21.57
2022-12-28T07:16:59.181Z,21.57
2022-12-28T07:18:00.798Z,21.55
2022-12-28T07:19:02.543Z,21.57
2022-12-28T07:20:04.727Z,21.56
2022-12-28T07:21:15.178Z,21.56
2022-12-28T07:22:16.813Z,21.54
2022-12-28T07:23:18.379Z,21.56
2022-12-28T07:24:20.324Z,21.53
2022-12-28T07:25:21.887Z,21.55
2022-12-28T07:26:26.670Z,21.32
2022-12-28T07:27:28.339Z,21.54
2022-12-28T07:28:29.971Z,21.53
2022-12-28T07:29:32.001Z,21.53
2022-12-28T07:30:34.218Z,21.52
2022-12-28T07:31:44.607Z,21.52
2022-12-28T07:32:47.999Z,21.52
2022-12-28T07:33:52.180Z,21.51
2022-12-28T07:34:53.829Z,21.51
2022-12-28T07:35:58.338Z,21.51
2022-12-28T07:37:00.398Z,21.49
2022-12-28T07:38:02.041Z,21.49
2022-12-28T07:39:03.821Z,21.50
2022-12-28T07:40:06.162Z,21.47
2022-12-28T07:41:11.037Z,21.49
2022-12-28T07:42:12.776Z,21.48
2022-12-28T07:43:14.791Z,21.48
2022-12-28T07:44:16.352Z,21.47
2022-12-28T07:45:17.945Z,21.46
2022-12-28T07:46:24.924Z,21.46
2022-12-28T07:47:26.698Z,21.46
2022-12-28T07:48:32.724Z,21.45
2022-12-28T07:49:34.462Z,21.42
2022-12-28T07:50:38.192Z,21.44
2022-12-28T07:51:40.031Z,21.45
2022-12-28T07:52:41.684Z,21.44
2022-12-28T07:53:45.565Z,21.44
2022-12-28T07:54:47.086Z,21.43
2022-12-28T07:55:56.854Z,21.43
2022-12-28T07:56:59.056Z,21.43
2022-12-28T07:58:00.587Z,21.42
2022-12-28T07:59:04.866Z,21.43
2022-12-28T08:00:07.487Z,21.41
2022-12-28T08:01:14.623Z,21.41
2022-12-28T08:02:16.431Z,21.42
2022-12-28T08:03:19.797Z,21.37
2022-12-28T08:04:21.524Z,21.41
2022-12-28T08:05:23.437Z,21.41
2022-12-28T08:06:26.429Z,21.38
2022-12-28T08:07:29.797Z,21.40
2022-12-28T08:08:34.963Z,21.41
2022-12-28T08:09:36.879Z,21.41
2022-12-28T08:10:38.597Z,21.40
2022-12-28T08:11:43.149Z,21.40
2022-12-28T08:12:44.761Z,21.36
2022-12-28T08:13:48.725Z,21.39
2022-12-28T08:14:50.316Z,21.39
2022-12-28T08:15:55.480Z,21.39
2022-12-28T08:16:57.284Z,21.39
2022-12-28T08:17:59.223Z,21.36
2022-12-28T08:19:03.363Z,21.37
2022-12-28T08:20:05.946Z,21.37
2022-12-28T08:21:14.331Z,21.38
2022-12-28T08:22:16.209Z,21.37
2022-12-28T08:23:17.829Z,21.39
2022-12-28T08:24:20.006Z,21.34
2022-12-28T08:25:21.723Z,21.39
2022-12-28T08:26:29.752Z,21.39
2022-12-28T08:27:38.193Z,21.38
2022-12-28T08:28:40.983Z,21.39
2022-12-28T08:29:42.558Z,21.38
2022-12-28T08:30:44.319Z,21.37
2022-12-28T08:31:46.741Z,21.38
2022-12-28T08:32:48.362Z,21.34
2022-12-28T08:33:50.767Z,21.36
2022-12-28T08:34:52.388Z,21.37
2022-12-28T08:35:56.873Z,21.34
2022-12-28T08:36:58.475Z,21.37
2022-12-28T08:38:00.057Z,21.36
2022-12-28T08:39:02.774Z,21.38
2022-12-28T08:40:05.008Z,21.36
2022-12-28T08:41:08.675Z,21.36
2022-12-28T08:42:11.819Z,21.37
2022-12-28T08:43:13.634Z,21.37
2022-12-28T08:44:15.351Z,21.36
2022-12-28T08:45:16.975Z,21.35
2022-12-28T08:46:30.746Z,21.35
2022-12-28T08:47:32.905Z,21.34
2022-12-28T08:48:35.287Z,21.31
2022-12-28T08:49:37.060Z,21.33
2022-12-28T08:50:38.803Z,21.34
2022-12-28T08:51:42.161Z,21.35
2022-12-28T08:52:43.988Z,21.34
2022-12-28T08:53:46.288Z,21.33
2022-12-28T08:54:47.927Z,21.33
2022-12-28T08:55:50.502Z,21.33
2022-12-28T08:56:53.530Z,21.31
2022-12-28T08:57:55.299Z,21.32
2022-12-28T09:02:02.813Z,15.52
2022-12-28T09:03:04.838Z,14.09
2022-12-28T09:04:09.459Z,13.33
2022-12-28T09:05:11.472Z,13.14
2022-12-28T09:06:16.182Z,12.78
2022-12-28T09:07:17.874Z,12.31
2022-12-28T09:08:19.749Z,12.09
2022-12-28T09:09:22.133Z,11.72
2022-12-28T09:10:24.053Z,11.42
2022-12-28T09:11:26.446Z,11.39
2022-12-28T09:12:28.237Z,11.37
2022-12-28T09:13:30.358Z,11.23
2022-12-28T09:14:32.023Z,11.12
2022-12-28T09:15:33.725Z,11.13
2022-12-28T09:16:39.362Z,11.09
2022-12-28T09:17:41.115Z,11.17
2022-12-28T09:18:44.684Z,11.07
2022-12-28T09:19:46.458Z,11.06
2022-12-28T09:20:48.250Z,10.97
2022-12-28T09:21:52.657Z,11.00
2022-12-28T09:22:54.659Z,11.14
2022-12-28T09:23:57.136Z,11.20
2022-12-28T09:24:59.160Z,11.35
2022-12-28T09:26:28.795Z,11.76
2022-12-28T09:27:31.566Z,11.97
2022-12-28T09:28:33.857Z,12.21
2022-12-28T09:29:35.805Z,12.45
2022-12-28T09:30:37.703Z,12.71
2022-12-28T09:31:40.713Z,12.92
2022-12-28T09:32:43.135Z,12.94
2022-12-28T09:35:25.159Z,13.73
2022-12-28T09:36:39.234Z,14.02
2022-12-28T09:37:41.045Z,14.26
2022-12-28T09:38:43.767Z,14.53
2022-12-28T09:39:46.157Z,14.57
2022-12-28T09:40:48.303Z,14.73
2022-12-28T09:41:52.764Z,15.04
2022-12-28T09:42:56.045Z,15.20
2022-12-28T09:44:09.976Z,14.78
2022-12-28T09:45:12.956Z,14.69
2022-12-28T09:46:18.748Z,14.72
2022-12-28T09:47:30.977Z,14.33
2022-12-28T09:48:35.075Z,14.21
2022-12-28T09:49:45.144Z,14.13
2022-12-28T09:50:48.081Z,13.82
2022-12-28T09:51:57.622Z,13.82
2022-12-28T09:53:17.470Z,13.84
2022-12-28T09:54:19.754Z,13.81
2022-12-28T09:55:21.722Z,13.82
2022-12-28T09:56:29.863Z,13.65
2022-12-28T09:57:38.228Z,13.70
2022-12-28T09:58:46.421Z,13.73
2022-12-28T09:59:52.344Z,13.60
2022-12-28T10:00:57.375Z,13.64
2022-12-28T10:02:03.253Z,13.78
2022-12-28T10:03:19.945Z,14.30
2022-12-28T10:04:21.999Z,14.65
2022-12-28T10:05:24.142Z,15.26
2022-12-28T10:06:28.437Z,15.42
2022-12-28T10:07:30.380Z,15.11
2022-12-28T10:08:38.183Z,14.45
2022-12-28T10:09:39.995Z,14.07
2022-12-28T10:10:48.374Z,13.81
2022-12-28T10:11:50.746Z,14.02
2022-12-28T10:12:53.146Z,14.08
2022-12-28T10:14:00.647Z,13.76
2022-12-28T10:15:02.516Z,13.42
2022-12-28T10:16:06.738Z,13.22
2022-12-28T10:17:12.619Z,13.31
2022-12-28T10:18:15.437Z,13.06
2022-12-28T10:19:24.698Z,12.89
2022-12-28T10:20:26.654Z,12.92
2022-12-28T10:21:33.582Z,12.90
2022-12-28T10:22:48.016Z,12.84
2022-12-28T10:24:29.765Z,12.63
2022-12-28T10:25:19.409Z,12.75
2022-12-28T10:26:21.163Z,12.56
2022-12-28T10:27:24.999Z,12.60
2022-12-28T10:28:33.596Z,12.66
2022-12-28T10:29:35.452Z,12.73
2022-12-28T10:30:49.027Z,12.56
2022-12-28T10:32:14.725Z,12.52
2022-12-28T10:33:19.314Z,12.50
2022-12-28T10:34:22.736Z,12.55
2022-12-28T10:35:41.202Z,12.57
2022-12-28T10:36:43.839Z,12.71
2022-12-28T10:37:45.652Z,12.63
2022-12-28T10:38:56.843Z,12.59
2022-12-28T10:40:01.991Z,12.52
2022-12-28T10:41:05.866Z,12.53
2022-12-28T10:42:21.082Z,12.55
2022-12-28T10:43:23.113Z,12.54
2022-12-28T10:44:43.153Z,12.53
2022-12-28T10:45:52.394Z,12.53
2022-12-28T10:46:59.750Z,12.67
2022-12-28T10:48:03.213Z,12.57
2022-12-28T10:49:08.692Z,12.73
2022-12-28T10:50:38.134Z,12.86
2022-12-28T10:52:03.820Z,13.05
2022-12-28T10:53:16.016Z,13.30
2022-12-28T10:54:27.559Z,13.57
2022-12-28T10:55:33.474Z,13.65
2022-12-28T10:56:48.639Z,13.66
2022-12-28T10:58:27.359Z,13.67
2022-12-28T10:59:15.590Z,13.71
2022-12-28T11:00:22.197Z,14.14
2022-12-28T11:01:32.265Z,14.24
2022-12-28T11:02:35.125Z,14.50
2022-12-28T11:03:39.345Z,14.62
2022-12-28T11:04:53.833Z,14.46
2022-12-28T11:06:09.902Z,14.67
2022-12-28T11:07:28.170Z,14.51
2022-12-28T11:08:30.320Z,14.85
2022-12-28T11:09:35.369Z,14.26
2022-12-28T11:10:38.274Z,14.02
2022-12-28T11:11:41.420Z,13.88
2022-12-28T11:12:46.191Z,13.88
2022-12-28T11:13:57.351Z,13.83
2022-12-28T11:14:59.625Z,13.53
2022-12-28T11:16:01.904Z,13.36
2022-12-28T11:17:25.237Z,13.50
2022-12-28T11:18:30.860Z,13.50
2022-12-28T11:19:37.349Z,13.32
2022-12-28T11:20:44.059Z,13.23
2022-12-28T11:21:46.216Z,13.44
2022-12-28T11:22:49.001Z,13.69
2022-12-28T11:23:52.268Z,14.13
2022-12-28T11:24:55.275Z,14.93
2022-12-28T11:25:58.434Z,15.45
2022-12-28T11:27:00.208Z,15.47
2022-12-28T11:28:12.777Z,16.19
2022-12-28T11:29:17.369Z,16.87
2022-12-28T11:30:21.368Z,17.52
2022-12-28T11:31:37.872Z,17.98
2022-12-28T11:32:46.415Z,18.14
2022-12-28T11:33:55.165Z,18.35
2022-12-28T11:34:58.550Z,18.58
2022-12-28T11:36:05.573Z,18.00
2022-12-28T11:37:16.824Z,16.48
2022-12-28T11:38:39.812Z,15.86
2022-12-28T11:39:44.302Z,16.08
2022-12-28T11:40:52.701Z,15.90
2022-12-28T11:42:37.926Z,16.10
2022-12-28T11:43:29.302Z,16.24
2022-12-28T11:44:30.999Z,16.22
2022-12-28T11:45:54.848Z,16.39
2022-12-28T11:47:05.019Z,16.20
2022-12-28T11:48:43.854Z,16.33
2022-12-28T11:49:47.741Z,16.44
2022-12-28T11:50:53.490Z,16.78
2022-12-28T11:52:17.482Z,16.03
2022-12-28T11:53:44.363Z,16.45
2022-12-28T11:54:55.497Z,16.62
2022-12-28T11:56:00.243Z,17.40
2022-12-28T11:57:02.112Z,18.11
2022-12-28T11:58:39.573Z,19.12
2022-12-28T11:59:41.203Z,18.92
2022-12-28T12:00:49.940Z,18.30
2022-12-28T12:01:53.556Z,17.24
2022-12-28T12:03:01.026Z,16.70
2022-12-28T12:04:06.200Z,16.83
2022-12-28T12:05:37.420Z,16.58
2022-12-28T12:06:48.769Z,17.03
2022-12-28T12:07:50.856Z,17.19
2022-12-28T12:08:53.384Z,17.19
2022-12-28T12:10:22.276Z,17.39
2022-12-28T12:11:29.576Z,16.76
2022-12-28T12:12:31.414Z,16.87
2022-12-28T12:13:42.654Z,16.42
2022-12-28T12:14:47.826Z,16.62
2022-12-28T12:15:50.883Z,17.20
2022-12-28T12:17:03.365Z,17.45
2022-12-28T12:18:14.374Z,17.47
2022-12-28T12:19:25.833Z,17.87
2022-12-28T12:21:02.240Z,18.08
2022-12-28T12:22:15.131Z,18.28
2022-12-28T12:23:40.527Z,17.92
2022-12-28T12:25:01.977Z,17.23
2022-12-28T12:26:20.995Z,17.06
2022-12-28T12:27:36.799Z,17.45
2022-12-28T12:28:44.410Z,17.58
2022-12-28T12:29:53.425Z,17.88
2022-12-28T12:30:56.601Z,17.66
2022-12-28T12:32:11.913Z,17.28
2022-12-28T12:33:22.485Z,17.53
2022-12-28T12:34:32.156Z,17.85
2022-12-28T12:35:57.523Z,18.59
2022-12-28T12:37:05.370Z,19.02
2022-12-28T12:38:22.231Z,19.11
2022-12-28T12:39:33.549Z,19.70
2022-12-28T12:41:03.548Z,20.06
2022-12-28T12:42:23.867Z,19.57
2022-12-28T12:43:32.522Z,18.69
2022-12-28T12:44:48.803Z,17.88
2022-12-28T12:45:57.687Z,17.57
2022-12-28T12:47:32.520Z,16.47
2022-12-28T12:48:59.413Z,15.13
2022-12-28T12:50:19.775Z,15.01
2022-12-28T12:52:06.669Z,14.64
2022-12-28T12:53:21.575Z,14.55
2022-12-28T12:54:29.264Z,14.19
2022-12-28T12:55:54.271Z,14.01
2022-12-28T12:57:05.244Z,13.72
2022-12-28T12:58:21.316Z,13.51
2022-12-28T12:59:32.036Z,13.61
2022-12-28T13:00:48.410Z,13.55
2022-12-28T13:02:19.532Z,13.59
2022-12-28T13:03:28.684Z,13.21
2022-12-28T13:04:35.501Z,13.25
2022-12-28T13:05:41.275Z,13.20
2022-12-28T13:06:44.781Z,13.19
2022-12-28T13:07:46.601Z,13.12
2022-12-28T13:08:53.415Z,13.09
2022-12-28T13:09:59.348Z,13.07
2022-12-28T13:11:02.036Z,13.07
2022-12-28T13:12:14.751Z,12.83
2022-12-28T13:13:27.659Z,12.99
2022-12-28T13:14:30.006Z,12.93
2022-12-28T13:15:32.950Z,12.95
2022-12-28T13:16:34.746Z,12.80
2022-12-28T13:17:36.611Z,12.80
2022-12-28T13:18:46.240Z,12.86
2022-12-28T13:19:48.559Z,13.08
2022-12-28T13:20:59.330Z,13.31
2022-12-28T13:22:01.284Z,13.36
2022-12-28T13:23:04.184Z,13.43
2022-12-28T13:24:39.581Z,13.61
2022-12-28T13:25:46.553Z,14.05
2022-12-28T13:26:49.100Z,14.17
2022-12-28T13:27:51.365Z,14.06
2022-12-28T13:29:02.261Z,14.27
2022-12-28T13:30:04.612Z,14.41
2022-12-28T13:31:07.253Z,14.37
2022-12-28T13:32:37.548Z,14.80
2022-12-28T13:33:39.729Z,14.57
2022-12-28T13:34:49.793Z,14.53
2022-12-28T13:36:04.212Z,14.47
2022-12-28T13:37:16.031Z,14.09
2022-12-28T13:38:18.805Z,14.16
2022-12-28T13:39:21.350Z,14.15
2022-12-28T13:40:23.222Z,14.44
2022-12-28T13:41:27.010Z,14.69
2022-12-28T13:43:18.391Z,14.85
2022-12-28T13:44:29.791Z,14.94
2022-12-28T13:45:31.814Z,15.23
2022-12-28T13:46:34.018Z,15.49
2022-12-28T13:47:42.202Z,15.70
2022-12-28T13:48:48.758Z,15.79
2022-12-28T13:50:03.326Z,16.20
2022-12-28T13:51:13.375Z,16.31
2022-12-28T13:52:23.224Z,16.47
2022-12-28T13:53:29.161Z,16.47
2022-12-28T13:54:31.723Z,15.88
2022-12-28T13:55:46.207Z,15.64
2022-12-28T13:56:48.109Z,15.24
2022-12-28T13:57:59.446Z,15.23
2022-12-28T13:59:06.751Z,15.00
2022-12-28T14:00:09.522Z,14.71
2022-12-28T14:01:18.169Z,14.52
2022-12-28T14:02:23.445Z,14.05
2022-12-28T14:03:28.624Z,13.79
2022-12-28T14:05:59.953Z,13.69
2022-12-28T14:07:02.190Z,13.50
2022-12-28T14:08:06.329Z,13.47
2022-12-28T14:09:11.725Z,13.36
2022-12-28T14:10:13.916Z,13.22
2022-12-28T14:11:16.927Z,13.26
2022-12-28T14:12:19.969Z,13.30
2022-12-28T14:13:22.465Z,13.25
2022-12-28T14:14:24.681Z,13.23
2022-12-28T14:15:26.885Z,13.24
2022-12-28T14:16:30.412Z,12.99
2022-12-28T14:17:32.729Z,13.06
2022-12-28T14:18:35.654Z,13.09
2022-12-28T14:19:38.141Z,13.04
2022-12-28T14:20:50.865Z,13.11
2022-12-28T14:21:52.631Z,13.05